createdAt,value
2018-07-05T00:02:09.544Z,21.50
2018-07-05T00:06:29.846Z,21.10
2018-07-05T00:10:50.158Z,21.20
2018-07-05T00:15:10.300Z,21.10
2018-07-05T00:19:30.327Z,21.20
2018-07-05T00:23:50.592Z,21.10
2018-07-05T00:28:10.748Z,20.60
2018-07-05T00:32:30.886Z,20.90
2018-07-05T00:41:05.360Z,20.70
2018-07-05T00:45:25.680Z,20.70
2018-07-05T00:49:45.945Z,20.80
2018-07-05T00:54:06.068Z,20.70
2018-07-05T00:58:26.256Z,20.40
2018-07-05T01:02:46.413Z,20.80
2018-07-05T01:07:06.598Z,20.70
2018-07-05T01:11:26.845Z,20.60
2018-07-05T01:15:47.048Z,20.50
2018-07-05T01:20:07.325Z,20.50
2018-07-05T01:24:27.332Z,20.60
2018-07-05T01:28:47.441Z,20.30
2018-07-05T01:33:07.532Z,20.20
2018-07-05T01:37:27.645Z,20.20
2018-07-05T01:41:47.776Z,19.90
2018-07-05T01:46:07.962Z,19.80
2018-07-05T01:50:28.057Z,20.60
2018-07-05T01:54:48.072Z,21.00
2018-07-05T01:59:08.371Z,20.90
2018-07-05T02:03:28.494Z,20.70
2018-07-05T02:07:48.851Z,20.20
2018-07-05T02:12:09.072Z,20.30
2018-07-05T02:16:29.192Z,20.20
2018-07-05T02:20:49.460Z,20.40
2018-07-05T02:25:09.561Z,19.90
2018-07-05T02:29:29.834Z,19.80
2018-07-05T02:33:50.041Z,20.30
2018-07-05T02:38:15.871Z,19.50
2018-07-05T02:42:36.123Z,19.60
2018-07-05T02:46:56.272Z,19.50
2018-07-05T02:51:16.484Z,20.10
2018-07-05T02:55:36.767Z,20.40
2018-07-05T02:59:56.980Z,20.50
2018-07-05T03:04:17.142Z,20.40
2018-07-05T03:08:37.218Z,19.70
2018-07-05T03:12:57.730Z,19.80
2018-07-05T03:17:17.946Z,20.30
2018-07-05T03:21:38.293Z,20.20
2018-07-05T03:25:58.388Z,20.20
2018-07-05T03:30:18.346Z,19.80
2018-07-05T03:34:38.502Z,19.80
2018-07-05T03:38:58.757Z,19.70
2018-07-05T03:43:18.981Z,19.40
2018-07-05T03:47:39.056Z,20.20
2018-07-05T03:51:59.355Z,20.50
2018-07-05T03:56:19.378Z,19.90
2018-07-05T04:00:39.646Z,20.10
2018-07-05T04:04:59.850Z,19.60
2018-07-05T04:09:20.486Z,20.30
2018-07-05T04:13:40.522Z,20.60
2018-07-05T04:18:00.750Z,20.20
2018-07-05T04:22:20.959Z,20.10
2018-07-05T04:26:41.090Z,20.10
2018-07-05T04:31:01.363Z,20.20
2018-07-05T04:35:21.661Z,20.10
2018-07-05T04:39:41.962Z,20.70
2018-07-05T04:44:02.265Z,20.70
2018-07-05T04:48:22.505Z,20.30
2018-07-05T04:56:56.995Z,19.90
2018-07-05T05:01:17.207Z,20.50
2018-07-05T05:05:37.278Z,20.50
2018-07-05T05:09:57.418Z,20.80
2018-07-05T05:14:17.634Z,20.50
2018-07-05T05:18:37.788Z,20.70
2018-07-05T05:22:58.159Z,20.90
2018-07-05T05:27:18.440Z,20.50
2018-07-05T05:31:38.788Z,20.60
2018-07-05T05:35:58.972Z,20.70
2018-07-05T05:40:19.292Z,20.60
2018-07-05T05:44:39.477Z,20.50
2018-07-05T05:48:59.526Z,19.90
2018-07-05T05:53:19.605Z,20.30
2018-07-05T05:57:39.823Z,20.40
2018-07-05T06:02:00.167Z,20.40
2018-07-05T06:06:20.266Z,21.00
2018-07-05T06:10:40.643Z,21.80
2018-07-05T06:15:00.822Z,22.00
2018-07-05T06:19:20.946Z,22.00
2018-07-05T06:23:41.236Z,21.80
2018-07-05T06:28:01.422Z,22.20
2018-07-05T06:32:21.694Z,21.90
2018-07-05T06:36:41.968Z,22.10
2018-07-05T06:41:02.225Z,22.30
2018-07-05T06:45:22.369Z,22.50
2018-07-05T06:49:42.626Z,22.40
2018-07-05T06:54:02.821Z,22.80
2018-07-05T06:58:22.877Z,22.70
2018-07-05T07:02:43.042Z,23.00
2018-07-05T07:07:03.318Z,23.20
2018-07-05T07:11:23.536Z,23.40
2018-07-05T07:15:43.828Z,23.70
2018-07-05T07:20:04.131Z,24.20
2018-07-05T07:24:24.375Z,24.30
2018-07-05T07:32:59.044Z,24.60
2018-07-05T07:37:19.286Z,24.80
2018-07-05T07:41:39.464Z,25.00
2018-07-05T07:45:43.022Z,24.90
2018-07-05T07:49:44.668Z,24.90
2018-07-05T07:53:46.270Z,25.00
2018-07-05T07:57:47.930Z,25.60
2018-07-05T08:01:50.274Z,25.50
2018-07-05T08:05:51.927Z,25.70
2018-07-05T08:09:53.581Z,26.00
2018-07-05T08:13:55.168Z,26.00
2018-07-05T08:17:57.920Z,26.20
2018-07-05T08:21:59.687Z,26.30
2018-07-05T08:26:01.352Z,26.70
2018-07-05T08:30:03.030Z,26.40
2018-07-05T08:34:04.769Z,26.10
2018-07-05T08:38:06.439Z,26.20
2018-07-05T08:42:08.115Z,26.50
2018-07-05T08:46:09.762Z,26.70
2018-07-05T08:50:11.400Z,26.90
2018-07-05T08:54:13.067Z,27.20
2018-07-05T08:58:14.663Z,27.30
2018-07-05T09:02:16.265Z,27.50
2018-07-05T09:06:17.891Z,27.90
2018-07-05T09:10:19.490Z,27.90
2018-07-05T09:14:21.555Z,28.30
2018-07-05T09:18:23.169Z,28.10
2018-07-05T09:22:24.762Z,28.40
2018-07-05T09:26:26.336Z,28.40
2018-07-05T09:30:27.941Z,28.50
2018-07-05T09:34:29.557Z,28.40
2018-07-05T09:38:31.140Z,28.50
2018-07-05T09:42:32.830Z,28.90
2018-07-05T09:46:34.468Z,28.90
2018-07-05T09:50:36.085Z,28.40
2018-07-05T09:54:37.708Z,28.70
2018-07-05T09:58:39.339Z,28.90
2018-07-05T10:06:43.103Z,29.00
2018-07-05T10:10:44.773Z,28.80
2018-07-05T10:14:46.355Z,29.20
2018-07-05T10:18:48.066Z,29.20
2018-07-05T10:26:51.764Z,29.30
2018-07-05T10:31:05.990Z,29.30
2018-07-05T10:35:13.898Z,29.50
2018-07-05T10:39:15.520Z,29.80
2018-07-05T10:43:29.428Z,30.00
2018-07-05T10:47:49.624Z,30.20
2018-07-05T10:52:09.797Z,30.10
2018-07-05T10:56:30.161Z,30.10
2018-07-05T11:00:50.272Z,29.80
2018-07-05T11:05:10.350Z,29.90
2018-07-05T11:09:30.452Z,30.20
2018-07-05T11:13:50.741Z,30.00
2018-07-05T11:18:10.752Z,29.80
2018-07-05T11:22:30.952Z,30.10
2018-07-05T11:26:51.121Z,29.80
2018-07-05T11:31:11.358Z,29.70
2018-07-05T11:35:31.585Z,30.30
2018-07-05T11:39:51.821Z,30.40
2018-07-05T11:44:12.297Z,30.20
2018-07-05T11:48:32.681Z,30.80
2018-07-05T11:52:52.712Z,30.30
2018-07-05T12:01:27.301Z,30.30
2018-07-05T12:05:47.507Z,29.80
2018-07-05T12:10:07.484Z,30.40
2018-07-05T12:14:27.787Z,30.20
2018-07-05T12:18:48.044Z,29.90
2018-07-05T12:23:08.457Z,30.10
2018-07-05T12:27:28.420Z,29.90
2018-07-05T12:31:49.136Z,30.00
2018-07-05T12:36:09.377Z,30.00
2018-07-05T12:44:44.121Z,30.70
2018-07-05T12:49:04.761Z,30.30
2018-07-05T12:53:24.983Z,30.60
2018-07-05T12:57:55.127Z,30.50
2018-07-05T13:02:15.256Z,30.60
2018-07-05T13:06:35.274Z,29.90
2018-07-05T13:10:57.174Z,29.60
2018-07-05T13:15:19.436Z,29.40
2018-07-05T13:23:55.259Z,29.60
2018-07-05T13:28:15.466Z,29.50
2018-07-05T13:32:35.548Z,29.50
2018-07-05T13:36:55.954Z,29.90
2018-07-05T13:41:16.732Z,30.20
2018-07-05T13:45:37.874Z,29.80
2018-07-05T13:49:57.938Z,29.70
2018-07-05T13:54:17.871Z,29.90
2018-07-05T13:58:38.004Z,30.00
2018-07-05T14:02:58.281Z,29.40
2018-07-05T14:07:18.284Z,29.50
2018-07-05T14:11:38.330Z,29.60
2018-07-05T14:20:13.062Z,29.40
2018-07-05T14:24:33.295Z,29.20
2018-07-05T14:28:53.353Z,28.90
2018-07-05T14:33:13.471Z,29.20
2018-07-05T14:37:33.656Z,28.70
2018-07-05T14:41:54.475Z,28.90
2018-07-05T14:46:14.818Z,28.90
2018-07-05T14:50:35.037Z,28.80
2018-07-05T14:54:55.502Z,28.50
2018-07-05T14:59:16.078Z,28.10
2018-07-05T15:03:36.395Z,27.70
2018-07-05T15:07:56.676Z,27.40
2018-07-05T15:12:16.873Z,27.50
2018-07-05T15:16:37.203Z,27.60
2018-07-05T15:20:57.364Z,28.30
2018-07-05T15:25:17.474Z,28.40
2018-07-05T15:29:37.756Z,28.40
2018-07-05T15:33:57.885Z,28.50
2018-07-05T15:38:17.930Z,28.50
2018-07-05T15:42:38.324Z,28.40
2018-07-05T15:46:58.537Z,28.20
2018-07-05T15:51:18.824Z,27.70
2018-07-05T15:55:39.013Z,27.40
2018-07-05T15:59:59.412Z,27.30
2018-07-05T16:04:19.759Z,27.20
2018-07-05T16:08:40.062Z,27.00
2018-07-05T16:13:00.215Z,27.00
2018-07-05T16:17:20.517Z,27.10
2018-07-05T16:21:41.035Z,27.20
2018-07-05T16:26:01.063Z,27.40
2018-07-05T16:30:21.058Z,27.20
2018-07-05T16:34:41.605Z,27.20
2018-07-05T16:39:01.744Z,27.30
2018-07-05T16:43:21.906Z,27.10
2018-07-05T16:47:42.298Z,27.10
2018-07-05T16:52:02.587Z,26.70
2018-07-05T16:56:22.861Z,26.80
2018-07-05T17:00:42.882Z,26.90
2018-07-05T17:05:04.004Z,26.80
2018-07-05T17:09:24.008Z,26.60
2018-07-05T17:13:44.345Z,26.60
2018-07-05T17:18:04.597Z,26.50
2018-07-05T17:22:24.752Z,26.30
2018-07-05T17:26:44.901Z,26.10
2018-07-05T17:31:05.102Z,26.00
2018-07-05T17:35:25.263Z,26.00
2018-07-05T17:39:45.453Z,26.00
2018-07-05T17:44:05.877Z,25.80
2018-07-05T17:48:25.980Z,25.70
2018-07-05T17:52:46.003Z,25.70
2018-07-05T17:57:06.075Z,25.60
2018-07-05T18:01:26.060Z,25.50
2018-07-05T18:05:46.056Z,25.30
2018-07-05T18:10:06.179Z,25.30
2018-07-05T18:18:40.850Z,24.90
2018-07-05T18:23:01.275Z,24.80
2018-07-05T18:27:22.677Z,24.80
2018-07-05T18:31:43.001Z,24.60
2018-07-05T18:36:03.131Z,24.40
2018-07-05T18:40:23.399Z,24.20
2018-07-05T18:44:43.975Z,24.10
2018-07-05T18:49:04.305Z,23.80
2018-07-05T18:53:24.406Z,23.80
2018-07-05T18:57:44.581Z,23.70
2018-07-05T19:02:04.643Z,23.30
2018-07-05T19:06:24.880Z,23.30
2018-07-05T19:10:45.047Z,23.20
2018-07-05T19:15:05.263Z,23.10
2018-07-05T19:19:25.404Z,22.90
2018-07-05T19:23:45.533Z,22.80
2018-07-05T19:28:05.655Z,22.80
2018-07-05T19:32:26.006Z,22.50
2018-07-05T19:36:48.708Z,22.40
2018-07-05T19:41:08.938Z,22.40
2018-07-05T19:45:32.091Z,22.30
2018-07-05T19:49:52.247Z,22.30
2018-07-05T19:54:12.366Z,22.60
2018-07-05T19:58:34.424Z,22.60
2018-07-05T20:02:55.276Z,22.20
2018-07-05T20:07:15.339Z,21.90
2018-07-05T20:11:35.624Z,21.80
2018-07-05T20:15:55.655Z,21.50
2018-07-05T20:20:15.780Z,21.50
2018-07-05T20:24:36.938Z,21.50
2018-07-05T20:28:57.355Z,21.50
2018-07-05T20:33:17.781Z,21.20
2018-07-05T20:37:38.080Z,21.30
2018-07-05T20:41:58.206Z,21.20
2018-07-05T20:46:18.555Z,21.10
2018-07-05T20:50:38.774Z,20.90
2018-07-05T20:54:58.906Z,20.90
2018-07-05T20:59:19.313Z,21.00
2018-07-05T21:03:39.476Z,20.90
2018-07-05T21:07:59.670Z,20.60
2018-07-05T21:12:19.771Z,20.40
2018-07-05T21:16:39.860Z,20.50
2018-07-05T21:20:59.961Z,20.60
2018-07-05T21:25:20.010Z,20.60
2018-07-05T21:29:40.051Z,20.40
2018-07-05T21:34:00.196Z,20.50
2018-07-05T21:38:20.352Z,20.20
2018-07-05T21:42:40.529Z,20.50
2018-07-05T21:47:00.693Z,20.20
2018-07-05T21:51:20.911Z,20.30
2018-07-05T21:55:41.228Z,20.40
2018-07-05T22:00:01.444Z,20.80
2018-07-05T22:04:21.518Z,20.20
2018-07-05T22:08:41.849Z,20.00
2018-07-05T22:13:01.886Z,19.70
2018-07-05T22:17:27.863Z,19.80
2018-07-05T22:21:53.514Z,19.70
2018-07-05T22:26:19.501Z,20.10
2018-07-05T22:30:45.359Z,19.70
2018-07-05T22:35:05.484Z,19.70
2018-07-05T22:39:25.653Z,19.20
2018-07-05T22:43:45.920Z,19.30
2018-07-05T22:48:06.005Z,19.70
2018-07-05T22:52:26.167Z,20.00
2018-07-05T22:56:46.209Z,19.30
2018-07-05T23:01:06.348Z,19.30
2018-07-05T23:05:26.510Z,18.80
2018-07-05T23:09:46.820Z,18.90
2018-07-05T23:14:06.987Z,18.90
2018-07-05T23:18:27.208Z,18.70
2018-07-05T23:22:47.434Z,19.20
2018-07-05T23:27:07.589Z,19.10
2018-07-05T23:31:27.642Z,18.80
2018-07-05T23:35:47.739Z,18.90
2018-07-05T23:40:08.110Z,18.90
2018-07-05T23:44:28.152Z,18.80
2018-07-05T23:48:48.500Z,19.20
2018-07-05T23:53:08.632Z,19.30
2018-07-05T23:57:28.801Z,19.50
